Time;durP1;ratioP1;P1;durP2;ratioP2;P2;SDS_P1;SDS_P2;PMS_P1;PMS_P2;Temp;Humidity;BMP_temperature;BMP_pressure;BME280_temperature;BME280_humidity;BME280_pressure;Samples;Min_cycle;Max_cycle;Signal;HPM_P1;HPM_P2
2022/09/25 00:01:00;;;;;;;10.70;8.37;;;;;;;11.62;71.69;95213.69;5054432;28;20445;-81
2022/09/25 00:03:29;;;;;;;9.50;8.50;;;;;;;11.65;71.49;95210.78;5052163;28;20456;-82
2022/09/25 00:06:02;;;;;;;10.63;8.67;;;;;;;11.67;72.06;95200.97;5054166;28;20994;-81
2022/09/25 00:08:29;;;;;;;9.50;7.17;;;;;;;11.69;71.29;95200.84;5054187;28;20437;-81
2022/09/25 00:10:56;;;;;;;7.13;6.43;;;;;;;11.73;71.71;95187.31;5054143;28;20433;-80
2022/09/25 00:13:25;;;;;;;14.50;7.80;;;;;;;11.79;70.86;95194.72;5054083;28;20476;-81
2022/09/25 00:15:53;;;;;;;8.80;6.37;;;;;;;11.73;71.49;95202.25;5054049;28;20445;-82
2022/09/25 00:19:48;;;;;;;10.20;6.80;;;;;;;11.75;70.37;95189.81;5054301;28;20456;-82
2022/09/25 00:21:11;;;;;;;7.43;6.77;;;;;;;11.69;71.32;95203.47;5053738;28;20537;-81
2022/09/25 00:23:38;;;;;;;6.57;5.77;;;;;;;11.65;71.23;95200.28;5053871;28;20444;-82
2022/09/25 00:26:07;;;;;;;7.60;5.83;;;;;;;11.59;71.22;95190.28;5053911;28;20907;-81
2022/09/25 00:28:36;;;;;;;7.30;6.60;;;;;;;11.64;71.30;95205.66;5053779;28;20440;-81
2022/09/25 00:31:04;;;;;;;7.07;6.37;;;;;;;11.62;70.06;95192.66;5053689;28;20436;-80
2022/09/25 00:33:31;;;;;;;6.70;5.70;;;;;;;11.66;70.89;95186.16;5053562;28;20455;-81
2022/09/25 00:36:03;;;;;;;6.70;6.07;;;;;;;11.60;70.86;95193.75;5053774;28;20456;-81
2022/09/25 00:38:30;;;;;;;6.97;6.30;;;;;;;11.61;70.62;95195.41;5053580;28;20457;-82
2022/09/25 00:40:58;;;;;;;6.73;6.03;;;;;;;11.66;71.62;95195.84;5053574;28;20452;-81
2022/09/25 00:43:38;;;;;;;6.20;5.50;;;;;;;11.56;70.93;95185.25;5053531;28;20450;-83
2022/09/25 00:46:09;;;;;;;6.90;6.30;;;;;;;11.58;71.33;95180.75;5053530;28;20486;-82
2022/09/25 00:48:37;;;;;;;6.37;5.73;;;;;;;11.61;71.02;95174.38;5053574;28;20882;-81
2022/09/25 00:51:06;;;;;;;5.43;4.93;;;;;;;11.60;71.41;95181.44;5053334;28;20447;-83
2022/09/25 00:53:39;;;;;;;5.63;5.10;;;;;;;11.56;70.12;95181.78;5053361;28;20458;-83
2022/09/25 00:56:09;;;;;;;6.77;6.07;;;;;;;11.57;70.98;95181.69;5053461;28;20456;-81
2022/09/25 00:58:40;;;;;;;6.97;6.13;;;;;;;11.59;70.15;95174.50;5053444;28;20507;-84
2022/09/25 01:01:08;;;;;;;6.40;5.70;;;;;;;11.61;70.59;95183.09;5053016;28;20453;-81
2022/09/25 01:03:36;;;;;;;5.80;5.20;;;;;;;11.51;70.38;95178.72;5053208;28;20534;-81
2022/09/25 01:06:02;;;;;;;5.80;5.20;;;;;;;11.50;71.10;95170.00;5053109;28;20488;-82
2022/09/25 01:08:31;;;;;;;6.80;6.13;;;;;;;11.59;70.78;95179.78;5053488;28;20901;-79
2022/09/25 01:10:58;;;;;;;8.70;6.80;;;;;;;11.64;71.01;95177.59;5053036;28;20487;-81
2022/09/25 01:13:29;;;;;;;5.77;5.17;;;;;;;11.63;71.46;95167.19;5053213;28;20468;-83
2022/09/25 01:16:07;;;;;;;7.03;6.00;;;;;;;11.64;70.40;95169.69;5018292;28;20482;-81
2022/09/25 01:18:49;;;;;;;6.10;5.60;;;;;;;11.71;69.51;95165.59;5053029;28;20526;-83
2022/09/25 01:21:34;;;;;;;7.37;6.33;;;;;;;11.69;69.95;95159.63;5052674;28;20457;-81
2022/09/25 01:24:18;;;;;;;6.30;5.37;;;;;;;11.59;70.86;95171.88;5052814;28;20449;-82
2022/09/25 01:27:16;;;;;;;6.20;5.63;;;;;;;11.57;71.24;95172.97;5052620;28;20549;-82
2022/09/25 01:29:51;;;;;;;6.40;5.80;;;;;;;11.60;70.67;95165.66;5052626;28;20851;-81
2022/09/25 01:32:23;;;;;;;8.70;6.40;;;;;;;11.60;70.87;95163.03;5052851;28;20451;-83
2022/09/25 01:34:58;;;;;;;6.60;6.00;;;;;;;11.66;70.98;95162.50;5050391;28;20939;-81
2022/09/25 01:37:29;;;;;;;7.50;6.73;;;;;;;11.65;70.99;95166.09;5052544;28;20447;-82
2022/09/25 01:40:05;;;;;;;8.33;6.97;;;;;;;11.61;71.21;95167.34;5052474;28;20445;-80
2022/09/25 01:42:40;;;;;;;6.60;6.00;;;;;;;11.60;70.41;95175.34;5052531;28;20452;-81
2022/09/25 01:45:15;;;;;;;5.70;5.23;;;;;;;11.55;70.27;95183.59;5052427;28;20865;-82
2022/09/25 01:47:47;;;;;;;8.17;6.97;;;;;;;11.45;71.47;95177.47;5052461;28;20449;-81
2022/09/25 01:50:18;;;;;;;8.50;6.93;;;;;;;11.40;71.99;95177.00;5052246;28;20448;-83
2022/09/25 01:52:49;;;;;;;9.30;7.20;;;;;;;11.39;71.56;95183.22;5052323;28;20475;-81
2022/09/25 01:55:21;;;;;;;10.17;7.93;;;;;;;11.43;71.86;95187.25;5052608;28;20456;-81
2022/09/25 01:57:54;;;;;;;8.00;7.20;;;;;;;11.44;72.21;95176.63;5052294;28;20505;-81
2022/09/25 02:00:25;;;;;;;8.77;7.40;;;;;;;11.48;71.58;95182.44;5052311;28;20451;-81
2022/09/25 02:02:57;;;;;;;6.93;6.23;;;;;;;11.50;72.03;95185.78;5052141;28;20477;-81
2022/09/25 02:05:30;;;;;;;7.33;6.57;;;;;;;11.51;72.22;95176.09;5049638;28;20472;-82
2022/09/25 02:08:02;;;;;;;10.73;7.13;;;;;;;11.47;72.00;95180.78;5052038;28;20530;-83
2022/09/25 02:10:36;;;;;;;7.90;7.13;;;;;;;11.44;72.43;95171.38;5052073;28;20451;-82
2022/09/25 02:13:09;;;;;;;7.23;6.30;;;;;;;11.40;71.83;95169.13;5052130;28;20462;-81
2022/09/25 02:15:43;;;;;;;13.07;8.30;;;;;;;11.38;72.40;95168.44;5051995;28;20456;-82
2022/09/25 02:21:10;;;;;;;9.73;6.93;;;;;;;11.32;72.33;95164.53;5052052;28;20441;-81
2022/09/25 02:23:48;;;;;;;6.90;6.20;;;;;;;11.29;72.19;95161.31;5051896;28;20443;-81
2022/09/25 02:26:25;;;;;;;8.93;7.00;;;;;;;11.24;72.67;95161.69;5052170;28;20892;-82
2022/09/25 02:28:53;;;;;;;9.27;6.37;;;;;;;11.21;72.38;95163.72;5051961;28;20452;-82
2022/09/25 02:31:26;;;;;;;6.80;6.17;;;;;;;11.12;73.46;95171.41;5051813;28;20936;-81
2022/09/25 02:33:53;;;;;;;6.20;5.63;;;;;;;11.01;72.80;95163.59;5051800;28;20460;-81
2022/09/25 02:36:22;;;;;;;6.30;5.60;;;;;;;11.00;72.53;95179.47;5051816;28;20443;-81
2022/09/25 02:38:52;;;;;;;6.77;6.10;;;;;;;10.98;72.09;95174.31;5052157;28;20454;-81
2022/09/25 02:41:29;;;;;;;7.10;5.70;;;;;;;10.92;72.99;95180.09;5051848;28;20447;-83
2022/09/25 02:44:02;;;;;;;7.03;6.10;;;;;;;10.83;73.27;95180.84;5052064;28;20835;-82
2022/09/25 02:46:39;;;;;;;7.43;5.80;;;;;;;10.78;73.65;95172.50;5051666;28;20492;-81
2022/09/25 02:49:16;;;;;;;6.03;5.23;;;;;;;10.81;73.72;95161.75;5051386;28;20460;-81
2022/09/25 02:51:52;;;;;;;7.27;6.57;;;;;;;10.33;75.95;95163.91;5051787;28;20450;-83
2022/09/25 02:54:27;;;;;;;10.40;8.50;;;;;;;9.99;78.45;95173.56;5051916;28;20455;-81
2022/09/25 02:57:01;;;;;;;13.03;9.93;;;;;;;9.87;78.55;95173.56;5054877;28;20961;-82
2022/09/25 02:59:33;;;;;;;10.83;8.90;;;;;;;9.98;78.69;95177.13;5055602;28;20941;-81
2022/09/25 03:02:02;;;;;;;12.30;8.53;;;;;;;9.98;78.66;95167.47;5055450;28;20846;-81
2022/09/25 03:04:34;;;;;;;8.93;7.00;;;;;;;9.99;77.86;95173.56;5055387;28;20451;-83
2022/09/25 03:07:01;;;;;;;8.93;7.57;;;;;;;10.06;77.84;95178.19;5055089;28;20499;-81
2022/09/25 03:09:31;;;;;;;6.17;5.43;;;;;;;10.02;77.20;95168.06;5055260;28;20449;-82
2022/09/25 03:11:58;;;;;;;7.07;6.37;;;;;;;10.01;77.27;95166.41;5055567;28;20438;-82
2022/09/25 03:14:27;;;;;;;7.63;4.77;;;;;;;10.12;76.95;95179.50;5055673;28;20501;-81
2022/09/25 03:16:56;;;;;;;5.73;5.23;;;;;;;10.14;76.58;95182.88;5055336;28;20467;-80
2022/09/25 03:19:26;;;;;;;6.17;4.97;;;;;;;10.20;75.87;95183.25;5055186;28;20442;-81
2022/09/25 03:21:54;;;;;;;6.17;5.57;;;;;;;10.23;75.14;95175.13;5055109;28;20476;-82
2022/09/25 03:24:21;;;;;;;6.83;5.50;;;;;;;10.19;75.86;95160.56;5055559;28;20485;-82
2022/09/25 03:26:48;;;;;;;6.23;5.03;;;;;;;10.26;75.83;95171.44;5055468;28;20713;-81
2022/09/25 03:29:16;;;;;;;8.73;5.27;;;;;;;10.33;75.51;95171.78;5054997;28;20455;-81
2022/09/25 03:31:44;;;;;;;6.13;5.63;;;;;;;10.40;74.69;95168.53;5054831;28;20454;-81
2022/09/25 03:34:12;;;;;;;6.50;5.67;;;;;;;10.44;74.82;95153.41;5054902;28;20444;-81
2022/09/25 03:36:43;;;;;;;6.43;5.30;;;;;;;10.45;74.48;95155.06;5020173;28;20534;-81
2022/09/25 03:39:10;;;;;;;6.20;5.27;;;;;;;10.44;74.78;95146.38;5054924;28;20517;-81
2022/09/25 03:41:37;;;;;;;6.10;5.60;;;;;;;10.33;75.25;95154.25;5055097;28;20860;-81
2022/09/25 03:44:04;;;;;;;6.90;5.90;;;;;;;10.36;75.19;95156.63;5054805;28;20449;-81
2022/09/25 03:46:32;;;;;;;6.67;5.30;;;;;;;10.42;74.81;95156.16;5052437;28;20481;-81
2022/09/25 03:49:00;;;;;;;7.70;4.90;;;;;;;10.47;74.40;95151.38;5054536;28;20461;-81
2022/09/25 03:51:28;;;;;;;5.70;5.20;;;;;;;10.57;74.12;95158.50;5054476;28;20443;-81
2022/09/25 03:53:57;;;;;;;6.10;5.27;;;;;;;10.61;73.66;95165.16;5054863;28;20926;-81
2022/09/25 03:56:26;;;;;;;5.60;5.10;;;;;;;10.68;73.08;95161.06;5054667;28;20470;-81
2022/09/25 03:58:54;;;;;;;6.60;6.00;;;;;;;10.69;73.51;95152.25;5054830;28;20450;-82
2022/09/25 04:01:22;;;;;;;9.90;5.53;;;;;;;10.68;72.94;95161.91;5052478;28;20930;-82
2022/09/25 04:03:49;;;;;;;9.53;8.10;;;;;;;10.52;74.22;95164.94;5054561;28;20431;-82
2022/09/25 04:06:19;;;;;;;13.90;9.40;;;;;;;10.29;74.41;95165.94;5053634;28;20495;-80
2022/09/25 04:08:47;;;;;;;10.70;8.57;;;;;;;10.42;75.29;95173.69;5054460;28;20458;-81
2022/09/25 04:11:17;;;;;;;12.83;8.97;;;;;;;10.27;75.55;95180.13;5054583;28;20525;-80
2022/09/25 04:13:44;;;;;;;10.33;7.80;;;;;;;10.17;76.19;95182.63;5054458;28;20461;-80
2022/09/25 04:16:12;;;;;;;10.53;7.37;;;;;;;10.09;77.36;95190.22;5054300;28;20459;-81
2022/09/25 04:18:41;;;;;;;10.98;9.63;;;;;;;10.10;78.02;95197.97;5053390;28;20907;-82
2022/09/25 04:21:10;;;;;;;15.13;9.03;;;;;;;10.08;78.06;95192.03;5054503;28;20201;-81
2022/09/25 04:23:38;;;;;;;10.60;9.00;;;;;;;10.09;77.94;95191.06;5055662;28;20455;-81
2022/09/25 04:26:05;;;;;;;12.70;9.80;;;;;;;10.03;78.54;95188.94;5055486;28;20502;-80
2022/09/25 04:28:34;;;;;;;10.63;9.40;;;;;;;10.06;77.89;95190.47;5055578;28;20446;-81
2022/09/25 04:31:02;;;;;;;12.13;8.90;;;;;;;10.10;78.66;95197.16;5053692;28;20447;-81
2022/09/25 04:33:46;;;;;;;12.57;9.97;;;;;;;10.13;78.39;95205.63;5055366;28;20462;-81
2022/09/25 04:36:14;;;;;;;12.40;9.77;;;;;;;10.22;77.75;95198.84;5055259;28;20482;-81
2022/09/25 04:38:41;;;;;;;13.47;10.00;;;;;;;10.28;77.91;95189.66;5070014;28;20759;-80
2022/09/25 04:41:08;;;;;;;11.63;9.57;;;;;;;10.34;78.18;95199.66;5069965;28;20443;-80
2022/09/25 04:43:36;;;;;;;13.23;10.13;;;;;;;10.41;77.83;95190.38;5054825;28;20444;-80
2022/09/25 04:46:04;;;;;;;12.23;10.30;;;;;;;10.14;78.21;95194.19;5054472;28;20493;-80
2022/09/25 04:48:31;;;;;;;14.77;10.77;;;;;;;10.01;79.33;95188.22;5054410;28;20927;-81
2022/09/25 04:50:58;;;;;;;13.10;10.10;;;;;;;10.05;78.88;95194.06;5054921;28;20432;-81
2022/09/25 04:53:26;;;;;;;11.50;9.07;;;;;;;10.01;79.16;95176.91;5054878;28;21133;-81
2022/09/25 04:55:54;;;;;;;9.63;8.60;;;;;;;10.03;78.78;95180.22;5069594;28;20504;-81
2022/09/25 04:58:21;;;;;;;13.40;9.50;;;;;;;10.08;79.64;95175.44;5054328;28;20461;-81
2022/09/25 05:00:49;;;;;;;11.40;8.50;;;;;;;10.13;78.64;95176.78;5055137;28;20443;-81
2022/09/25 05:03:16;;;;;;;8.60;7.43;;;;;;;10.21;79.19;95169.19;5054527;28;20545;-82
2022/09/25 05:05:43;;;;;;;11.03;8.60;;;;;;;10.28;78.52;95173.94;5051343;28;21972;-81
2022/09/25 05:08:11;;;;;;;9.50;8.60;;;;;;;10.40;78.16;95181.66;5034618;28;20451;-81
2022/09/25 05:10:39;;;;;;;9.80;7.73;;;;;;;10.46;77.18;95186.44;5034650;28;20475;-80
2022/09/25 05:13:07;;;;;;;9.77;7.50;;;;;;;10.61;77.45;95194.03;5034481;28;20535;-79
2022/09/25 05:15:35;;;;;;;7.77;6.87;;;;;;;10.74;76.67;95197.34;5034878;28;20537;-82
2022/09/25 05:18:05;;;;;;;19.10;11.87;;;;;;;11.22;76.08;95196.91;5033843;28;20444;-81
2022/09/25 05:20:31;;;;;;;23.13;9.53;;;;;;;11.90;72.27;95193.81;5034225;28;20948;-80
2022/09/25 05:23:00;;;;;;;13.23;9.47;;;;;;;12.68;69.99;95195.75;5034942;28;20433;-79
2022/09/25 05:25:27;;;;;;;10.53;8.57;;;;;;;13.47;66.94;95187.78;5033875;28;20482;-81
2022/09/25 05:27:57;;;;;;;13.90;11.03;;;;;;;13.97;65.02;95179.66;5034365;28;20486;-80
2022/09/25 05:30:24;;;;;;;17.27;12.53;;;;;;;14.35;63.03;95183.13;5034312;28;20455;-81
2022/09/25 05:32:52;;;;;;;19.60;13.30;;;;;;;14.48;61.49;95173.09;5015955;28;20455;-81
2022/09/25 05:35:22;;;;;;;13.47;10.67;;;;;;;14.54;62.43;95185.72;5033669;28;20461;-81
2022/09/25 05:37:49;;;;;;;14.93;10.60;;;;;;;15.10;61.49;95171.44;5033945;28;20454;-80
2022/09/25 05:40:16;;;;;;;17.80;11.07;;;;;;;15.07;59.84;95169.94;5034395;28;20450;-81
2022/09/25 05:42:44;;;;;;;20.10;12.10;;;;;;;15.10;59.71;95184.66;5033939;28;20833;-80
2022/09/25 05:45:11;;;;;;;12.53;10.23;;;;;;;15.28;59.24;95176.72;5039466;28;20462;-81
2022/09/25 05:47:38;;;;;;;14.83;9.40;;;;;;;14.95;59.29;95170.28;5054012;28;20481;-81
2022/09/25 05:50:06;;;;;;;10.50;9.40;;;;;;;15.30;59.85;95186.16;5053637;28;20832;-81
2022/09/25 05:52:35;;;;;;;13.23;9.77;;;;;;;15.69;59.11;95183.22;5019072;28;20473;-80
2022/09/25 05:55:02;;;;;;;12.33;9.23;;;;;;;16.01;57.35;95174.69;5053618;28;20456;-79
2022/09/25 05:57:31;;;;;;;11.77;9.07;;;;;;;16.32;57.62;95193.53;5053549;28;20441;-80
2022/09/25 05:59:58;;;;;;;9.90;8.80;;;;;;;16.59;55.15;95197.81;5053791;28;20445;-82
2022/09/25 06:02:24;;;;;;;13.83;9.90;;;;;;;16.79;55.27;95195.78;5053057;28;20563;-81
2022/09/25 06:04:51;;;;;;;12.10;9.53;;;;;;;17.06;54.20;95198.19;5053132;28;20452;-81
2022/09/25 06:07:18;;;;;;;16.77;8.80;;;;;;;17.34;53.48;95185.44;5052740;28;20487;-81
2022/09/25 06:09:46;;;;;;;8.87;8.00;;;;;;;16.96;53.60;95182.41;5053472;28;20456;-81
2022/09/25 06:12:13;;;;;;;11.43;8.60;;;;;;;17.16;53.82;95176.81;5053295;28;20453;-82
2022/09/25 06:14:40;;;;;;;10.57;9.47;;;;;;;16.99;54.00;95179.41;5053736;28;20445;-83
2022/09/25 06:17:07;;;;;;;11.63;8.30;;;;;;;17.45;57.54;95186.97;5018577;28;20528;-82
2022/09/25 06:19:34;;;;;;;13.73;9.23;;;;;;;17.46;54.44;95183.31;5053119;28;20949;-83
2022/09/25 06:22:00;;;;;;;10.00;8.97;;;;;;;17.81;53.38;95198.94;5052399;28;20503;-81
2022/09/25 06:24:27;;;;;;;11.80;9.10;;;;;;;17.89;51.62;95185.66;5043846;28;20928;-78
2022/09/25 06:26:56;;;;;;;10.70;9.23;;;;;;;17.85;51.27;95186.97;5050570;28;20487;-82
2022/09/25 06:29:22;;;;;;;19.93;10.80;;;;;;;17.64;51.08;95186.66;5058530;28;20815;-84
2022/09/25 06:31:49;;;;;;;8.50;7.70;;;;;;;17.92;50.60;95190.63;5054120;28;20468;-82
2022/09/25 06:34:16;;;;;;;8.67;7.87;;;;;;;18.02;51.25;95193.13;5057265;28;20477;-81
2022/09/25 06:36:43;;;;;;;9.27;8.30;;;;;;;18.53;48.31;95183.88;5071076;28;20947;-82
2022/09/25 06:39:10;;;;;;;11.63;8.93;;;;;;;18.83;47.50;95187.59;5057750;28;20795;-80
2022/09/25 06:41:37;;;;;;;8.30;7.57;;;;;;;19.04;46.60;95184.31;5057159;28;20452;-82
2022/09/25 06:44:05;;;;;;;9.60;7.77;;;;;;;19.14;46.13;95192.94;5057446;28;20445;-87
2022/09/25 06:46:32;;;;;;;9.57;7.43;;;;;;;19.28;45.62;95182.53;5057421;28;20836;-85
2022/09/25 06:49:02;;;;;;;11.43;7.97;;;;;;;19.16;44.71;95190.91;5056848;28;20462;-83
2022/09/25 06:51:30;;;;;;;8.80;7.90;;;;;;;19.35;45.63;95199.44;5057657;28;20469;-83
2022/09/25 06:53:57;;;;;;;7.33;6.20;;;;;;;19.20;45.02;95191.38;5057472;28;20533;-83
2022/09/25 06:56:24;;;;;;;13.73;8.33;;;;;;;18.90;46.48;95192.22;5056743;28;20454;-83
2022/09/25 06:58:51;;;;;;;7.40;6.60;;;;;;;18.76;46.08;95185.78;5039114;28;20461;-83
2022/09/25 07:01:19;;;;;;;9.20;7.00;;;;;;;18.15;47.33;95187.28;5057369;28;20425;-84
2022/09/25 07:03:46;;;;;;;9.80;6.50;;;;;;;18.21;47.71;95183.94;5038513;28;20445;-82
2022/09/25 07:06:14;;;;;;;8.27;7.50;;;;;;;18.22;47.63;95180.31;5056920;28;20476;-83
2022/09/25 07:08:42;;;;;;;9.50;6.80;;;;;;;18.41;47.67;95176.41;5055335;28;20455;-82
2022/09/25 07:11:13;;;;;;;8.23;6.60;;;;;;;18.41;47.09;95184.38;5056320;28;20436;-83
2022/09/25 07:13:40;;;;;;;9.27;6.20;;;;;;;18.29;47.68;95191.91;5058177;28;20461;-83
2022/09/25 07:16:11;;;;;;;7.20;6.47;;;;;;;18.25;47.87;95191.41;5058300;28;20445;-83
2022/09/25 07:18:39;;;;;;;6.70;6.10;;;;;;;18.26;49.10;95195.72;5058206;28;20503;-83
2022/09/25 07:21:08;;;;;;;6.33;5.83;;;;;;;18.31;48.36;95197.88;5058302;28;20441;-83
2022/09/25 07:23:36;;;;;;;6.00;5.50;;;;;;;18.55;47.85;95192.50;5057516;28;20442;-83
2022/09/25 07:26:07;;;;;;;7.27;6.27;;;;;;;18.48;46.47;95204.78;5058202;28;20449;-81
2022/09/25 07:28:35;;;;;;;7.17;6.47;;;;;;;18.31;47.39;95208.50;5057632;28;21018;-83
2022/09/25 07:31:11;;;;;;;9.77;7.07;;;;;;;18.31;47.82;95205.03;5040044;28;20780;-83
2022/09/25 07:33:39;;;;;;;16.17;7.20;;;;;;;18.39;47.38;95212.97;5059712;28;20457;-85
2022/09/25 07:36:07;;;;;;;8.10;7.20;;;;;;;18.39;47.08;95212.97;5040235;28;20438;-82
2022/09/25 07:38:35;;;;;;;18.80;9.63;;;;;;;18.13;48.12;95213.19;5039717;28;20544;-83
2022/09/25 07:41:04;;;;;;;19.93;10.27;;;;;;;18.08;48.88;95204.88;5038002;28;20501;-83
2022/09/25 07:43:31;;;;;;;24.77;13.73;;;;;;;17.97;49.73;95213.22;5040029;28;20446;-83
2022/09/25 07:45:58;;;;;;;18.20;13.00;;;;;;;18.02;50.19;95208.22;5020862;28;20774;-84
2022/09/25 07:48:25;;;;;;;16.23;13.30;;;;;;;18.15;49.03;95192.59;5037399;28;20496;-83
2022/09/25 07:50:54;;;;;;;20.83;13.93;;;;;;;18.28;49.53;95174.31;5035854;28;20952;-83
2022/09/25 07:53:21;;;;;;;17.97;13.73;;;;;;;18.52;48.37;95181.38;5035854;28;20458;-84
2022/09/25 07:55:48;;;;;;;18.63;12.63;;;;;;;18.66;48.34;95166.56;5036161;28;20463;-83
2022/09/25 07:58:15;;;;;;;18.73;11.30;;;;;;;19.02;48.17;95165.03;5036171;28;20454;-83
2022/09/25 08:00:42;;;;;;;11.97;9.20;;;;;;;19.16;46.69;95159.00;5036332;28;20450;-83
2022/09/25 08:03:15;;;;;;;14.07;9.50;;;;;;;19.23;45.94;95161.78;5036429;28;20466;-84
2022/09/25 08:05:42;;;;;;;10.60;9.50;;;;;;;19.49;46.29;95151.59;5048617;28;20462;-84
2022/09/25 08:08:10;;;;;;;12.70;8.27;;;;;;;19.70;46.52;95150.16;5055555;28;20485;-83
2022/09/25 08:10:36;;;;;;;20.30;8.70;;;;;;;19.75;44.47;95159.25;5055623;28;20461;-83
2022/09/25 08:13:03;;;;;;;11.13;8.10;;;;;;;19.74;45.03;95156.75;5055416;28;20457;-83
2022/09/25 08:15:30;;;;;;;11.77;8.83;;;;;;;19.84;44.19;95151.19;5055538;28;20450;-84
2022/09/25 08:17:58;;;;;;;9.00;8.20;;;;;;;19.93;42.72;95150.09;5055235;28;20442;-83
2022/09/25 08:20:24;;;;;;;14.00;8.70;;;;;;;19.87;43.18;95146.31;5055665;28;20446;-85
2022/09/25 08:22:53;;;;;;;9.50;7.83;;;;;;;20.17;52.11;95154.34;5053527;28;20452;-84
2022/09/25 08:25:22;;;;;;;11.50;9.40;;;;;;;20.51;43.25;95149.31;5055530;28;20430;-85
2022/09/25 08:27:48;;;;;;;13.50;10.27;;;;;;;20.34;42.83;95145.19;5055902;28;20470;-83
2022/09/25 08:30:16;;;;;;;13.13;8.50;;;;;;;20.44;42.85;95136.94;5055261;28;21004;-83
2022/09/25 08:32:43;;;;;;;9.90;8.77;;;;;;;20.69;42.88;95125.78;5036991;28;20445;-84
2022/09/25 08:35:10;;;;;;;9.80;8.23;;;;;;;20.78;42.83;95115.81;5053876;28;20446;-83
2022/09/25 08:37:40;;;;;;;12.57;9.03;;;;;;;20.69;42.49;95108.94;5053850;28;20446;-84
2022/09/25 08:40:17;;;;;;;8.73;7.20;;;;;;;20.73;41.74;95116.38;5053909;28;20481;-84
2022/09/25 08:42:48;;;;;;;8.70;7.80;;;;;;;20.90;41.88;95109.00;5053664;28;20540;-84
2022/09/25 08:51:04;;;;;;;7.10;6.40;;;;;;;20.98;39.42;95103.53;5054885;28;20444;-84
2022/09/25 08:53:32;;;;;;;9.70;7.57;;;;;;;20.85;40.54;95123.94;5054899;28;20430;-84
2022/09/25 08:56:16;;;;;;;9.20;8.07;;;;;;;20.95;40.01;95119.94;5055090;28;20936;-84
2022/09/25 08:58:50;;;;;;;11.57;8.90;;;;;;;21.02;43.77;95104.00;5054780;28;20991;-88
2022/09/25 09:01:20;;;;;;;7.67;6.87;;;;;;;21.00;42.23;95114.84;5055469;28;20456;-89
2022/09/25 09:03:53;;;;;;;8.37;7.40;;;;;;;21.09;46.90;95112.06;5055909;28;20449;-89
2022/09/25 09:06:24;;;;;;;18.80;9.90;;;;;;;21.40;50.63;95114.50;5055672;28;20818;-89
2022/09/25 09:08:55;;;;;;;9.80;7.40;;;;;;;21.57;42.96;95108.69;5055541;28;20480;-87
2022/09/25 09:11:26;;;;;;;8.57;6.50;;;;;;;21.57;43.98;95098.00;5055684;28;20473;-87
2022/09/25 09:13:59;;;;;;;6.47;5.83;;;;;;;21.75;48.53;95096.72;5055171;28;20948;-87
2022/09/25 09:16:52;;;;;;;6.73;6.13;;;;;;;21.70;44.10;95094.63;5057006;28;20453;-92
2022/09/25 09:19:20;;;;;;;6.10;5.50;;;;;;;21.61;39.13;95083.22;5035597;28;20463;-93
2022/09/25 09:21:56;;;;;;;6.87;5.97;;;;;;;21.77;41.89;95097.34;5039869;28;20477;-92
2022/09/25 09:24:34;;;;;;;6.47;5.90;;;;;;;21.54;40.51;95081.53;5042312;28;20450;-93
2022/09/25 09:27:12;;;;;;;8.43;5.60;;;;;;;21.28;42.58;95072.25;5038270;28;20546;-92
2022/09/25 09:29:58;;;;;;;6.53;5.93;;;;;;;21.45;42.02;95069.34;5036471;28;20450;-95
2022/09/25 09:32:55;;;;;;;10.40;6.80;;;;;;;21.51;39.18;95066.72;5035996;28;20450;-91
2022/09/25 09:35:29;;;;;;;9.70;6.23;;;;;;;21.64;44.37;95061.47;5034808;28;20457;-95
2022/09/25 09:38:07;;;;;;;6.93;6.33;;;;;;;21.50;44.07;95059.72;5051518;28;20442;-95
2022/09/25 09:41:11;;;;;;;6.60;6.00;;;;;;;21.46;40.65;95054.97;5056486;28;20820;-85
2022/09/25 09:44:05;;;;;;;6.60;6.00;;;;;;;21.16;39.25;95057.75;4954011;29;20449;-83
2022/09/25 09:46:44;;;;;;;10.70;5.50;;;;;;;21.11;42.21;95060.19;4896830;29;20901;-84
2022/09/25 09:49:17;;;;;;;6.20;5.60;;;;;;;21.19;39.57;95064.56;4896617;29;20492;-84
2022/09/25 09:51:51;;;;;;;6.10;5.53;;;;;;;21.23;39.45;95066.69;4896358;29;20841;-83
2022/09/25 09:54:23;;;;;;;10.10;5.17;;;;;;;20.96;39.02;95057.56;4896720;29;20452;-84
2022/09/25 09:56:52;;;;;;;7.60;5.70;;;;;;;20.98;39.22;95055.53;4896322;29;20449;-84
2022/09/25 09:59:22;;;;;;;11.95;6.90;;;;;;;21.02;40.56;95050.63;4897219;29;20460;-85
2022/09/25 10:01:59;;;;;;;5.70;4.70;;;;;;;20.83;39.97;95051.28;4881497;29;20244;-87
2022/09/25 10:04:32;;;;;;;6.27;5.17;;;;;;;20.56;38.25;95047.47;4896086;29;20463;-86
2022/09/25 10:07:03;;;;;;;5.57;5.07;;;;;;;20.38;38.99;95045.16;4896409;29;20481;-87
2022/09/25 10:09:30;;;;;;;5.87;4.80;;;;;;;20.23;38.88;95045.19;4896433;29;20485;-84
2022/09/25 10:12:03;;;;;;;6.53;5.90;;;;;;;20.24;41.30;95040.66;4896151;29;20464;-84
2022/09/25 10:14:34;;;;;;;6.53;5.50;;;;;;;20.33;40.89;95043.06;4896126;29;20937;-88
2022/09/25 10:17:04;;;;;;;7.73;5.90;;;;;;;20.31;40.25;95042.44;4880541;29;20462;-84
2022/09/25 10:19:45;;;;;;;6.60;5.03;;;;;;;20.37;40.29;95044.34;4899072;29;20453;-82
2022/09/25 10:22:16;;;;;;;8.33;5.30;;;;;;;20.39;41.03;95028.16;4972497;28;20457;-86
2022/09/25 10:24:50;;;;;;;5.97;5.40;;;;;;;20.49;43.46;95038.56;5049026;28;20460;-86
2022/09/25 10:27:26;;;;;;;10.60;5.87;;;;;;;20.62;40.80;95031.56;5053120;28;20929;-85
2022/09/25 10:30:05;;;;;;;7.07;5.03;;;;;;;20.84;41.50;95037.75;5058814;28;21088;-84
2022/09/25 10:32:41;;;;;;;5.53;5.07;;;;;;;20.94;39.71;95027.56;5024757;28;20434;-86
2022/09/25 10:35:14;;;;;;;9.43;5.80;;;;;;;21.08;39.97;95014.34;5040112;28;20485;-86
2022/09/25 10:37:42;;;;;;;6.70;5.40;;;;;;;21.07;39.49;95020.69;5053184;28;20446;-86
2022/09/25 10:40:25;;;;;;;8.83;5.77;;;;;;;21.10;38.32;95007.78;5052398;28;20452;-85
2022/09/25 10:43:03;;;;;;;5.53;5.03;;;;;;;21.24;40.72;95006.13;5053230;28;20524;-84
2022/09/25 10:45:31;;;;;;;5.90;5.30;;;;;;;21.38;40.72;95002.53;5067285;28;20456;-83
2022/09/25 10:50:45;;;;;;;9.88;4.70;;;;;;;21.38;38.44;95002.53;5052892;28;20728;-85
2022/09/25 10:53:29;;;;;;;5.70;4.83;;;;;;;21.36;37.89;95007.22;5053000;28;20210;-86
2022/09/25 10:56:03;;;;;;;5.90;5.30;;;;;;;21.37;39.73;95000.88;5052834;28;20449;-85
2022/09/25 10:58:36;;;;;;;8.03;5.67;;;;;;;21.46;39.24;94989.03;5052436;28;20465;-87
2022/09/25 11:01:04;;;;;;;5.40;5.00;;;;;;;21.48;37.50;94992.34;5052782;28;20477;-83
2022/09/25 11:03:35;;;;;;;5.17;4.67;;;;;;;21.50;38.63;94992.16;5052486;28;20452;-84
2022/09/25 11:06:04;;;;;;;5.10;4.67;;;;;;;21.51;40.53;94988.47;5052283;28;20499;-83
2022/09/25 11:08:36;;;;;;;7.70;4.60;;;;;;;21.52;36.97;94976.75;5052790;28;20521;-84
2022/09/25 11:11:04;;;;;;;7.17;4.67;;;;;;;21.42;36.86;94982.44;5052854;28;20493;-84
2022/09/25 11:13:37;;;;;;;5.80;5.07;;;;;;;21.34;40.52;94977.22;5052293;28;20457;-84
2022/09/25 11:16:08;;;;;;;8.93;5.60;;;;;;;21.37;39.39;94984.03;5052936;28;20438;-83
2022/09/25 11:18:43;;;;;;;9.63;4.80;;;;;;;21.38;39.64;94981.16;5056468;28;20457;-83
2022/09/25 11:21:23;;;;;;;8.60;5.70;;;;;;;21.40;39.92;94976.47;5056858;28;20746;-82
2022/09/25 11:24:14;;;;;;;6.97;6.37;;;;;;;21.45;41.20;94975.91;5056454;28;20871;-87
2022/09/25 11:26:45;;;;;;;9.20;5.40;;;;;;;21.54;40.99;94964.03;5056217;28;20449;-85
2022/09/25 11:29:20;;;;;;;7.67;6.43;;;;;;;21.60;40.98;94964.06;5056391;28;20477;-84
2022/09/25 11:31:52;;;;;;;6.70;5.63;;;;;;;21.73;39.99;94962.53;5052922;28;20815;-84
2022/09/25 11:34:32;;;;;;;7.37;5.40;;;;;;;21.81;40.09;94963.16;5055112;28;20453;-84
2022/09/25 11:37:05;;;;;;;7.33;5.43;;;;;;;21.82;38.24;94966.66;5053957;28;20829;-84
2022/09/25 11:42:44;;;;;;;6.33;5.73;;;;;;;21.72;37.60;94958.19;5034238;28;20800;-84
2022/09/25 11:45:19;;;;;;;5.87;5.30;;;;;;;21.60;39.45;94953.38;5033987;28;20454;-84
2022/09/25 11:47:53;;;;;;;10.73;5.07;;;;;;;21.62;39.64;94955.84;5033743;28;20991;-84
2022/09/25 11:50:30;;;;;;;5.40;4.90;;;;;;;21.74;37.84;94945.47;5033749;28;20443;-83
2022/09/25 11:53:11;;;;;;;5.60;4.70;;;;;;;21.80;37.44;94933.97;5000931;28;20529;-83
2022/09/25 11:55:55;;;;;;;5.60;5.20;;;;;;;21.87;37.51;94932.16;5033814;28;20435;-84
2022/09/25 11:58:45;;;;;;;4.83;4.43;;;;;;;21.88;37.55;94936.47;5033751;28;21008;-84
2022/09/25 12:01:24;;;;;;;4.93;4.53;;;;;;;21.82;37.97;94929.28;4955647;29;20851;-84